Time;durP1;ratioP1;P1;durP2;ratioP2;P2;SDS_P1;SDS_P2;PMS_P1;PMS_P2;Temp;Humidity;BMP_temperature;BMP_pressure;BME280_temperature;BME280_humidity;BME280_pressure;Samples;Min_cycle;Max_cycle;Signal;HPM_P1;HPM_P2
2022/10/04 00:01:29;;;;;;;;;;;14.30;99.90;;;;;;4989893;28;25155;-70
2022/10/04 00:04:09;;;;;;;16.92;6.75;;;14.20;99.90;;;;;;4995313;28;24087;-70
2022/10/04 00:06:37;;;;;;;15.55;8.07;;;14.30;99.90;;;;;;4988413;28;25090;-70
2022/10/04 00:09:12;;;;;;;18.35;8.65;;;14.30;99.90;;;;;;4990703;28;25049;-69
2022/10/04 00:11:43;;;;;;;14.50;8.18;;;14.30;99.90;;;;;;4991729;28;25084;-70
2022/10/04 00:14:13;;;;;;;14.93;7.35;;;14.10;99.90;;;;;;4988990;28;25066;-70
2022/10/04 00:16:40;;;;;;;18.23;8.30;;;14.10;99.90;;;;;;4986239;28;25100;-70
2022/10/04 00:19:15;;;;;;;18.67;7.70;;;14.10;99.90;;;;;;4979095;28;25070;-70
2022/10/04 00:22:06;;;;;;;18.83;8.25;;;14.10;99.90;;;;;;4983481;28;25073;-69
2022/10/04 00:24:35;;;;;;;13.73;7.80;;;14.00;99.90;;;;;;4969283;28;25120;-70
2022/10/04 00:27:22;;;;;;;15.60;7.25;;;13.90;99.90;;;;;;4987013;28;25087;-69
2022/10/04 00:30:00;;;;;;;14.40;6.60;;;14.00;99.90;;;;;;4993528;28;25054;-70
2022/10/04 00:32:39;;;;;;;20.88;8.45;;;14.00;99.90;;;;;;4980672;28;25107;-69
2022/10/04 00:35:28;;;;;;;16.88;9.10;;;14.00;99.90;;;;;;4989396;28;25095;-69
2022/10/04 00:38:14;;;;;;;15.48;8.05;;;13.90;99.90;;;;;;4987502;28;25169;-69
2022/10/04 00:40:48;;;;;;;18.30;8.57;;;14.00;99.90;;;;;;4979020;28;25100;-70
2022/10/04 00:43:24;;;;;;;13.88;7.75;;;14.00;99.90;;;;;;4988604;28;25095;-70
2022/10/04 00:45:55;;;;;;;19.05;8.75;;;13.90;99.90;;;;;;4995203;28;25127;-70
2022/10/04 00:48:21;;;;;;;17.60;9.00;;;13.80;99.90;;;;;;4990757;28;25093;-70
2022/10/04 00:51:09;;;;;;;16.95;8.60;;;13.80;99.90;;;;;;4977778;28;25182;-69
2022/10/04 00:54:01;;;;;;;17.33;8.73;;;13.70;99.90;;;;;;4992295;28;24960;-69
2022/10/04 00:56:44;;;;;;;23.92;8.73;;;13.70;99.90;;;;;;4987067;28;25176;-71
2022/10/04 00:59:28;;;;;;;21.08;10.00;;;13.70;99.90;;;;;;4992018;28;25059;-71
2022/10/04 01:02:03;;;;;;;21.85;8.68;;;13.70;99.90;;;;;;4978466;28;25067;-69
2022/10/04 01:04:43;;;;;;;19.58;9.95;;;13.70;99.90;;;;;;4995714;28;25097;-69
2022/10/04 01:07:13;;;;;;;15.30;8.18;;;13.60;99.90;;;;;;4989243;28;25072;-71
2022/10/04 01:09:52;;;;;;;15.13;8.02;;;13.70;99.90;;;;;;4999673;28;25068;-70
2022/10/04 01:12:41;;;;;;;17.95;9.63;;;13.60;99.90;;;;;;4995914;28;25089;-70
2022/10/04 01:15:13;;;;;;;18.48;8.80;;;13.50;99.90;;;;;;4988297;28;25069;-69
2022/10/04 01:17:39;;;;;;;;;;;13.40;99.90;;;;;;5003000;28;25082;-69
2022/10/04 01:20:32;;;;;;;16.88;8.65;;;13.40;99.90;;;;;;4994597;28;24073;-71
2022/10/04 01:22:57;;;;;;;23.00;9.55;;;13.40;99.90;;;;;;4987702;28;25141;-69
2022/10/04 01:25:43;;;;;;;18.67;9.48;;;13.50;99.90;;;;;;4997359;28;25077;-70
2022/10/04 01:28:09;;;;;;;21.05;9.95;;;13.50;99.90;;;;;;4991407;28;25172;-69
2022/10/04 01:30:35;;;;;;;21.60;10.18;;;13.50;99.90;;;;;;4996058;28;25091;-70
2022/10/04 01:33:02;;;;;;;24.80;10.20;;;13.50;99.90;;;;;;4990254;28;25112;-71
2022/10/04 01:35:27;;;;;;;18.77;9.88;;;13.40;99.90;;;;;;4983563;28;25121;-69
2022/10/04 01:37:54;;;;;;;22.77;9.25;;;13.40;99.90;;;;;;4985944;28;25461;-70
2022/10/04 01:40:20;;;;;;;17.33;9.70;;;13.40;99.90;;;;;;4995310;28;25073;-70
2022/10/04 01:42:54;;;;;;;19.33;9.32;;;13.30;99.90;;;;;;4985458;28;25115;-69
2022/10/04 01:45:49;;;;;;;16.10;9.35;;;13.30;99.90;;;;;;4992029;28;25142;-69
2022/10/04 01:48:20;;;;;;;25.25;10.43;;;13.20;99.90;;;;;;4997027;28;25081;-69
2022/10/04 01:50:57;;;;;;;19.10;8.50;;;13.20;99.90;;;;;;4990189;28;25109;-70
2022/10/04 01:53:29;;;;;;;17.90;9.43;;;13.20;99.90;;;;;;4985966;28;25058;-68
2022/10/04 01:56:12;;;;;;;16.17;9.13;;;13.20;99.90;;;;;;4993537;28;25066;-69
2022/10/04 01:58:43;;;;;;;22.65;9.80;;;13.20;99.90;;;;;;4992206;28;25058;-69
2022/10/04 02:01:18;;;;;;;26.38;9.95;;;13.20;99.90;;;;;;4988609;28;25081;-70
2022/10/04 02:04:15;;;;;;;17.77;9.43;;;13.10;99.90;;;;;;4992328;28;25504;-70
2022/10/04 02:06:43;;;;;;;18.77;9.50;;;13.10;99.90;;;;;;4984351;28;25148;-71
2022/10/04 02:09:13;;;;;;;19.25;10.55;;;13.10;99.90;;;;;;4993593;28;25069;-70
2022/10/04 02:11:42;;;;;;;22.83;9.63;;;13.10;99.90;;;;;;5006045;28;25068;-69
2022/10/04 02:14:16;;;;;;;16.70;9.75;;;13.00;99.90;;;;;;4993727;28;25056;-70
2022/10/04 02:16:45;;;;;;;18.05;9.88;;;13.10;99.90;;;;;;5005013;28;25084;-70
2022/10/04 02:19:11;;;;;;;17.80;10.00;;;13.00;99.90;;;;;;4990337;28;25060;-70
2022/10/04 02:21:38;;;;;;;24.70;10.75;;;13.00;99.90;;;;;;4984659;28;25081;-70
2022/10/04 02:24:06;;;;;;;27.27;10.57;;;12.90;99.90;;;;;;4991105;28;25060;-70
2022/10/04 02:26:31;;;;;;;21.02;9.80;;;13.00;99.90;;;;;;4992888;28;25082;-69
2022/10/04 02:28:57;;;;;;;20.48;9.88;;;13.00;99.90;;;;;;4992518;28;25106;-68
2022/10/04 02:34:08;;;;;;;25.70;10.63;;;13.00;99.90;;;;;;4994169;28;25060;-70
2022/10/04 02:36:35;;;;;;;23.08;10.45;;;13.00;99.90;;;;;;4987829;28;25068;-70
2022/10/04 02:39:18;;;;;;;19.60;10.15;;;12.90;99.90;;;;;;4997321;28;25059;-70
2022/10/04 02:41:58;;;;;;;19.95;9.80;;;13.00;99.90;;;;;;4978783;28;25060;-69
2022/10/04 02:44:28;;;;;;;25.13;10.90;;;12.90;99.90;;;;;;4991257;28;25070;-69
2022/10/04 02:47:04;;;;;;;20.35;10.40;;;12.90;99.90;;;;;;4978016;28;25067;-69
2022/10/04 02:49:41;;;;;;;26.60;11.52;;;12.90;99.90;;;;;;4986065;28;25085;-69
2022/10/04 02:52:11;;;;;;;18.02;11.07;;;12.80;99.90;;;;;;5006671;28;25094;-70
2022/10/04 02:55:02;;;;;;;21.52;11.00;;;12.80;99.90;;;;;;4989826;28;25126;-70
2022/10/04 02:57:31;;;;;;;21.30;10.60;;;12.70;99.90;;;;;;4980805;28;25123;-69
2022/10/04 03:00:15;;;;;;;21.95;10.77;;;12.80;99.90;;;;;;4985531;28;25116;-71
2022/10/04 03:03:01;;;;;;;24.38;10.95;;;12.80;99.90;;;;;;4989271;28;25152;-68
2022/10/04 03:05:27;;;;;;;20.33;10.32;;;12.80;99.90;;;;;;4996957;28;25065;-69
2022/10/04 03:07:53;;;;;;;20.58;10.77;;;12.80;99.90;;;;;;4992153;28;25153;-70
2022/10/04 03:10:18;;;;;;;21.98;11.38;;;12.70;99.90;;;;;;4992345;28;25144;-69
2022/10/04 03:12:52;;;;;;;19.63;10.88;;;12.80;99.90;;;;;;4992454;28;25070;-70
2022/10/04 03:15:19;;;;;;;27.98;11.68;;;12.80;99.90;;;;;;4998225;28;25139;-71
2022/10/04 03:17:45;;;;;;;21.73;11.40;;;12.70;99.90;;;;;;5000177;28;25081;-69
2022/10/04 03:20:19;;;;;;;17.88;10.88;;;12.70;99.90;;;;;;4987275;28;25077;-70
2022/10/04 03:22:47;;;;;;;18.23;11.00;;;12.70;99.90;;;;;;4986412;28;25068;-68
2022/10/04 03:25:29;;;;;;;20.45;11.77;;;12.60;99.90;;;;;;4990446;28;25131;-69
2022/10/04 03:27:59;;;;;;;17.60;10.95;;;12.70;99.90;;;;;;4980679;28;25141;-67
2022/10/04 03:30:24;;;;;;;28.77;11.38;;;12.70;99.90;;;;;;4994024;28;25087;-70
2022/10/04 03:32:50;;;;;;;25.02;11.57;;;12.70;99.90;;;;;;4983292;28;25058;-70
2022/10/04 03:35:31;;;;;;;17.77;10.65;;;12.80;99.90;;;;;;4989969;28;25152;-68
2022/10/04 03:37:57;;;;;;;24.50;11.27;;;12.80;99.90;;;;;;5002903;28;25069;-70
2022/10/04 03:40:26;;;;;;;20.80;11.90;;;12.70;99.90;;;;;;4991023;28;25061;-71
2022/10/04 03:42:53;;;;;;;23.55;11.02;;;12.70;99.90;;;;;;5003066;28;25079;-71
2022/10/04 03:45:21;;;;;;;20.08;11.45;;;12.60;99.90;;;;;;4989967;28;25071;-70
2022/10/04 03:47:49;;;;;;;22.80;12.23;;;12.50;99.90;;;;;;4993312;28;25073;-70
2022/10/04 03:50:20;;;;;;;24.38;12.43;;;12.50;99.90;;;;;;4995175;28;25148;-70
2022/10/04 03:52:55;;;;;;;20.88;11.18;;;12.50;99.90;;;;;;5002121;28;25056;-68
2022/10/04 03:55:30;;;;;;;19.27;10.95;;;12.40;99.90;;;;;;4995072;28;25133;-69
2022/10/04 03:57:56;;;;;;;23.30;12.18;;;12.50;99.90;;;;;;4989831;28;25081;-70
2022/10/04 04:00:22;;;;;;;31.55;12.20;;;12.50;99.90;;;;;;4998559;28;25057;-70
2022/10/04 04:03:00;;;;;;;18.50;10.45;;;12.50;99.90;;;;;;5001367;28;25146;-70
2022/10/04 04:05:34;;;;;;;26.70;11.93;;;12.50;99.90;;;;;;4990863;28;25059;-70
2022/10/04 04:07:59;;;;;;;18.98;10.48;;;12.50;99.90;;;;;;4977381;28;25088;-70
2022/10/04 04:10:34;;;;;;;17.73;10.27;;;12.40;99.90;;;;;;4977322;28;25089;-73
2022/10/04 04:13:02;;;;;;;17.25;10.57;;;12.30;99.90;;;;;;4975380;28;25158;-70
2022/10/04 04:15:31;;;;;;;25.05;11.10;;;12.30;99.90;;;;;;4976828;28;25193;-69
2022/10/04 04:18:03;;;;;;;23.30;10.98;;;12.40;99.90;;;;;;4975388;28;25060;-70
2022/10/04 04:20:33;;;;;;;22.50;11.35;;;12.40;99.90;;;;;;4981490;28;25072;-69
2022/10/04 04:23:14;;;;;;;25.65;12.02;;;12.40;99.90;;;;;;4975108;28;25130;-70
2022/10/04 04:25:45;;;;;;;23.75;11.98;;;12.50;99.90;;;;;;4982947;28;25076;-70
2022/10/04 04:28:38;;;;;;;23.88;11.45;;;12.60;99.90;;;;;;4979197;28;25074;-69
2022/10/04 04:31:27;;;;;;;19.42;11.18;;;12.50;99.90;;;;;;4975418;28;25068;-70
2022/10/04 04:34:02;;;;;;;20.75;11.00;;;12.50;99.90;;;;;;4988750;28;25076;-70
2022/10/04 04:36:30;;;;;;;24.42;12.13;;;12.40;99.90;;;;;;4985635;28;25156;-70
2022/10/04 04:39:33;;;;;;;22.83;12.48;;;12.30;99.90;;;;;;4991048;28;25112;-70
2022/10/04 04:42:04;;;;;;;21.98;11.93;;;12.20;99.90;;;;;;4988132;28;25516;-70
2022/10/04 04:44:30;;;;;;;20.25;11.65;;;12.30;99.90;;;;;;4997634;28;25098;-70
2022/10/04 04:46:59;;;;;;;22.02;11.55;;;12.30;99.90;;;;;;4986959;28;25106;-70
2022/10/04 04:49:28;;;;;;;23.35;10.93;;;12.30;99.90;;;;;;4984494;28;25154;-71
2022/10/04 04:51:56;;;;;;;21.77;12.27;;;12.30;99.90;;;;;;4982984;28;25061;-72
2022/10/04 04:54:26;;;;;;;24.27;11.52;;;12.40;99.90;;;;;;4981638;28;25062;-71
2022/10/04 04:56:53;;;;;;;25.00;11.43;;;12.40;99.90;;;;;;4986280;28;25061;-71
2022/10/04 04:59:21;;;;;;;24.10;12.50;;;12.50;99.90;;;;;;4987853;28;25111;-70
2022/10/04 05:01:49;;;;;;;22.50;11.73;;;12.50;99.90;;;;;;4989051;28;25067;-72
2022/10/04 05:04:17;;;;;;;23.58;10.25;;;12.40;99.90;;;;;;4993246;28;25094;-71
2022/10/04 05:06:47;;;;;;;20.30;11.02;;;12.30;99.90;;;;;;4989046;28;25080;-71
2022/10/04 05:09:30;;;;;;;28.58;11.23;;;12.40;99.90;;;;;;4989276;28;25072;-71
2022/10/04 05:12:08;;;;;;;;;;;12.30;99.90;;;;;;5000312;28;25162;-71
2022/10/04 05:14:38;;;;;;;23.27;11.82;;;12.30;99.90;;;;;;4987358;28;24074;-71
2022/10/04 05:17:05;;;;;;;26.23;11.48;;;12.30;99.90;;;;;;4980646;28;25097;-70
2022/10/04 05:19:35;;;;;;;26.08;12.23;;;12.30;99.90;;;;;;4984010;28;25090;-72
2022/10/04 05:22:13;;;;;;;20.33;11.48;;;12.20;99.90;;;;;;4990100;28;25072;-71
2022/10/04 05:24:47;;;;;;;27.40;11.40;;;12.20;99.90;;;;;;4991427;28;25105;-72
2022/10/04 05:27:16;;;;;;;22.88;11.98;;;12.30;99.90;;;;;;4990579;28;25074;-71
2022/10/04 05:29:56;;;;;;;20.67;11.57;;;12.30;99.90;;;;;;4992407;28;25116;-71
2022/10/04 05:32:36;;;;;;;33.13;12.75;;;12.30;99.90;;;;;;4980041;28;25060;-72
2022/10/04 05:35:17;;;;;;;25.52;14.07;;;12.30;99.90;;;;;;4982321;28;25085;-70
2022/10/04 05:38:03;;;;;;;20.83;11.57;;;12.20;99.90;;;;;;4981016;28;25055;-70
2022/10/04 05:40:55;;;;;;;27.45;12.98;;;12.30;99.90;;;;;;4982737;28;25091;-69
2022/10/04 05:43:27;;;;;;;19.63;11.20;;;12.30;99.90;;;;;;4995664;28;25107;-71
2022/10/04 05:46:14;;;;;;;23.35;11.57;;;12.30;99.90;;;;;;4983188;28;25070;-71
2022/10/04 05:48:42;;;;;;;22.25;11.80;;;12.30;99.90;;;;;;4986004;28;25094;-72
2022/10/04 05:51:24;;;;;;;19.80;10.90;;;12.30;99.90;;;;;;4987255;28;25064;-70
2022/10/04 05:53:51;;;;;;;24.70;11.57;;;12.30;99.90;;;;;;4977037;28;25172;-70
2022/10/04 05:56:47;;;;;;;18.10;10.57;;;12.30;99.90;;;;;;4987765;28;25089;-69
2022/10/04 05:59:28;;;;;;;25.30;11.05;;;12.30;99.90;;;;;;4995154;28;25084;-71
2022/10/04 06:02:35;;;;;;;28.38;11.40;;;12.30;99.90;;;;;;4994545;28;25146;-72
2022/10/04 06:05:04;;;;;;;19.45;11.02;;;12.20;99.90;;;;;;4970562;28;25144;-71
2022/10/04 06:07:40;;;;;;;25.77;12.32;;;12.20;99.90;;;;;;4994372;28;25138;-70
2022/10/04 06:10:25;;;;;;;28.17;12.45;;;12.30;99.90;;;;;;4993673;28;25049;-71
2022/10/04 06:13:19;;;;;;;27.75;13.20;;;12.30;99.90;;;;;;4985581;28;25060;-71
2022/10/04 06:16:23;;;;;;;19.63;11.57;;;12.30;99.90;;;;;;4983082;28;25056;-71
2022/10/04 06:19:07;;;;;;;23.95;12.82;;;12.30;99.90;;;;;;4979030;28;25092;-70
2022/10/04 06:22:00;;;;;;;26.42;12.13;;;12.30;99.90;;;;;;4990204;28;25053;-70
2022/10/04 06:24:36;;;;;;;20.30;11.00;;;12.20;99.90;;;;;;4999940;28;25072;-69
2022/10/04 06:27:09;;;;;;;28.27;11.90;;;12.20;99.90;;;;;;4997324;28;25089;-71
2022/10/04 06:29:40;;;;;;;24.00;12.32;;;12.20;99.90;;;;;;4989305;28;25062;-71
2022/10/04 06:32:28;;;;;;;29.15;13.10;;;12.20;99.90;;;;;;4988918;28;25058;-70
2022/10/04 06:35:05;;;;;;;23.70;12.75;;;12.20;99.90;;;;;;4986762;28;25077;-71
2022/10/04 06:37:43;;;;;;;24.90;13.05;;;12.20;99.90;;;;;;4981961;28;25095;-73
2022/10/04 06:40:33;;;;;;;24.52;12.55;;;12.30;99.90;;;;;;4987034;28;25134;-70
2022/10/04 06:43:25;;;;;;;27.00;12.77;;;12.30;99.90;;;;;;4992276;28;25118;-72
2022/10/04 06:46:06;;;;;;;22.15;11.38;;;12.40;99.90;;;;;;4991412;28;25080;-73
2022/10/04 06:48:43;;;;;;;26.52;11.10;;;12.40;99.90;;;;;;4986948;28;25067;-72
2022/10/04 06:51:23;;;;;;;28.23;12.57;;;12.40;99.90;;;;;;4988915;28;25138;-71
2022/10/04 06:53:55;;;;;;;22.27;11.23;;;12.40;99.90;;;;;;5001542;28;25157;-72
2022/10/04 06:57:08;;;;;;;23.07;11.30;;;12.40;99.90;;;;;;4990617;28;25094;-71
2022/10/04 06:59:55;;;;;;;23.10;11.93;;;12.40;99.90;;;;;;4973556;28;25096;-70
2022/10/04 07:02:29;;;;;;;22.75;11.15;;;12.50;99.90;;;;;;4986549;28;25098;-71
2022/10/04 07:05:01;;;;;;;21.67;11.68;;;12.60;99.90;;;;;;4983506;28;25079;-73
2022/10/04 07:07:36;;;;;;;24.05;11.95;;;12.60;99.90;;;;;;4995223;28;25144;-72
2022/10/04 07:10:17;;;;;;;27.00;11.57;;;12.70;99.90;;;;;;4989236;28;25070;-72
2022/10/04 07:12:49;;;;;;;31.65;11.20;;;12.60;99.90;;;;;;4988324;28;25154;-72
2022/10/04 07:15:31;;;;;;;22.38;11.18;;;12.70;99.90;;;;;;4999238;28;25134;-71
2022/10/04 07:18:02;;;;;;;21.63;10.77;;;12.80;99.90;;;;;;5000786;28;25084;-71
2022/10/04 07:20:34;;;;;;;21.83;10.68;;;12.80;99.90;;;;;;4984422;28;25120;-71
2022/10/04 07:23:04;;;;;;;;;;;13.00;99.90;;;;;;4984535;28;25096;-70
2022/10/04 07:25:35;;;;;;;17.45;9.00;;;12.90;99.90;;;;;;4985159;28;25055;-69
2022/10/04 07:30:59;;;;;;;18.80;9.45;;;13.00;99.90;;;;;;4985757;28;25064;-71
2022/10/04 07:33:27;;;;;;;20.20;9.70;;;13.00;99.90;;;;;;4984107;28;25127;-71
2022/10/04 07:36:06;;;;;;;23.20;10.95;;;13.10;99.90;;;;;;4986548;28;25061;-71
2022/10/04 07:38:35;;;;;;;24.80;9.63;;;13.20;99.90;;;;;;4995401;28;25067;-73
2022/10/04 07:41:26;;;;;;;21.55;10.13;;;13.30;99.90;;;;;;4986569;28;25056;-71
2022/10/04 07:43:56;;;;;;;21.30;9.60;;;13.50;99.90;;;;;;4997935;28;25071;-71
2022/10/04 07:46:45;;;;;;;22.05;8.57;;;13.50;99.90;;;;;;4996874;28;25142;-72
2022/10/04 07:49:19;;;;;;;14.85;9.18;;;13.70;99.90;;;;;;4995712;28;25153;-71
2022/10/04 07:52:14;;;;;;;20.80;8.82;;;13.70;99.90;;;;;;5002201;28;25136;-71
2022/10/04 07:55:12;;;;;;;17.45;8.32;;;13.90;99.90;;;;;;5000824;28;25066;-70
2022/10/04 07:57:48;;;;;;;20.65;9.00;;;13.90;99.90;;;;;;4989892;28;25161;-72
2022/10/04 08:00:21;;;;;;;22.13;9.13;;;14.00;99.90;;;;;;5001438;28;25076;-72
2022/10/04 08:02:46;;;;;;;;;;;14.10;99.90;;;;;;4990599;28;25073;-70
2022/10/04 08:05:18;;;;;;;19.13;8.40;;;14.20;99.90;;;;;;4996048;28;24148;-71
2022/10/04 08:07:45;;;;;;;;;;;14.30;99.90;;;;;;5004659;28;25078;-70
2022/10/04 08:10:25;;;;;;;14.65;8.32;;;14.40;99.90;;;;;;4996048;28;25054;-71
2022/10/04 08:13:08;;;;;;;17.33;9.05;;;14.30;99.90;;;;;;5002437;28;25061;-70
2022/10/04 08:15:41;;;;;;;18.63;8.55;;;14.20;99.90;;;;;;4998240;28;25054;-72
2022/10/04 08:18:46;;;;;;;17.23;8.38;;;14.30;99.90;;;;;;4999366;28;25067;-71
2022/10/04 08:21:26;;;;;;;18.15;9.05;;;14.40;99.90;;;;;;4992384;28;25156;-71
2022/10/04 08:24:23;;;;;;;19.73;9.27;;;14.40;99.90;;;;;;4998514;28;25077;-70
2022/10/04 08:27:03;;;;;;;17.40;8.02;;;14.20;99.90;;;;;;4999479;28;25073;-71
2022/10/04 08:30:01;;;;;;;19.67;8.40;;;14.50;99.90;;;;;;4997751;28;25078;-69
2022/10/04 08:32:42;;;;;;;13.88;8.75;;;14.40;99.90;;;;;;4988041;28;25062;-69
2022/10/04 08:35:24;;;;;;;20.50;9.32;;;14.20;99.90;;;;;;4982978;28;25100;-71
2022/10/04 08:38:28;;;;;;;14.50;7.97;;;14.10;99.90;;;;;;4990054;28;25068;-69
2022/10/04 08:41:14;;;;;;;22.75;8.70;;;14.20;99.90;;;;;;4982139;28;25086;-70
2022/10/04 08:44:15;;;;;;;19.02;8.30;;;14.40;99.90;;;;;;4995195;28;25095;-70
2022/10/04 08:47:15;;;;;;;15.77;7.85;;;14.70;99.90;;;;;;4980847;28;25158;-71
2022/10/04 08:49:56;;;;;;;14.30;7.70;;;15.00;99.90;;;;;;4990767;28;25030;-71
2022/10/04 08:52:35;;;;;;;18.23;8.00;;;15.20;99.90;;;;;;4984090;28;24769;-70
2022/10/04 08:55:33;;;;;;;17.33;7.97;;;15.50;99.90;;;;;;4990595;28;25067;-72
2022/10/04 08:58:34;;;;;;;18.75;9.02;;;15.40;99.90;;;;;;4972644;28;25065;-73
2022/10/04 09:01:21;;;;;;;18.58;8.77;;;15.20;99.90;;;;;;4984993;28;25061;-71
2022/10/04 09:04:00;;;;;;;13.35;7.93;;;15.10;99.90;;;;;;4985990;28;25168;-71
2022/10/04 09:06:50;;;;;;;16.65;8.23;;;15.00;99.90;;;;;;4982683;28;25100;-71
2022/10/04 09:09:39;;;;;;;18.38;9.73;;;15.10;99.90;;;;;;4973613;28;25134;-72
2022/10/04 09:12:14;;;;;;;17.40;7.88;;;14.80;99.90;;;;;;4991594;28;25091;-70
2022/10/04 09:14:57;;;;;;;16.40;8.55;;;14.60;99.90;;;;;;4996226;28;25051;-72
2022/10/04 09:17:45;;;;;;;14.68;8.65;;;14.70;99.90;;;;;;4993914;28;25096;-71
2022/10/04 09:20:44;;;;;;;19.17;8.15;;;14.80;99.90;;;;;;4988850;28;25071;-71
2022/10/04 09:23:30;;;;;;;15.40;7.95;;;14.80;99.90;;;;;;4991859;28;25075;-72
2022/10/04 09:26:20;;;;;;;19.38;8.43;;;14.90;99.90;;;;;;4996647;28;25172;-71
2022/10/04 09:29:09;;;;;;;17.23;8.23;;;14.90;99.90;;;;;;4997549;28;25184;-72
2022/10/04 09:31:53;;;;;;;20.10;7.05;;;15.00;99.90;;;;;;4991659;28;25072;-71
2022/10/04 09:34:56;;;;;;;13.23;8.50;;;15.00;99.90;;;;;;5005310;28;25158;-73
2022/10/04 09:37:31;;;;;;;;;;;15.10;99.90;;;;;;4993053;28;25083;-73
2022/10/04 09:40:30;;;;;;;17.40;7.32;;;15.20;99.90;;;;;;4989084;28;24074;-73
2022/10/04 09:43:24;;;;;;;14.90;6.90;;;15.20;99.90;;;;;;4995328;28;25066;-72
2022/10/04 09:46:26;;;;;;;22.25;8.90;;;15.30;99.90;;;;;;4989457;28;25071;-72
2022/10/04 09:49:31;;;;;;;12.55;6.60;;;15.30;99.90;;;;;;5000555;28;25091;-72
2022/10/04 09:52:13;;;;;;;16.80;7.65;;;15.30;99.90;;;;;;5003580;28;25047;-71
2022/10/04 09:55:12;;;;;;;17.17;8.05;;;15.40;99.90;;;;;;5003273;28;25087;-72
2022/10/04 09:57:52;;;;;;;14.60;6.65;;;15.50;99.90;;;;;;4999287;28;25112;-74
2022/10/04 10:00:25;;;;;;;17.45;7.72;;;15.60;99.90;;;;;;5004300;28;25135;-70
2022/10/04 10:03:16;;;;;;;12.38;6.78;;;15.80;99.90;;;;;;5008917;28;25170;-72
2022/10/04 10:05:41;;;;;;;14.02;6.70;;;15.90;99.90;;;;;;5001857;28;25091;-72
2022/10/04 10:08:35;;;;;;;14.70;8.13;;;15.90;99.90;;;;;;5004696;28;25127;-71
2022/10/04 10:14:38;;;;;;;18.88;7.97;;;15.70;99.90;;;;;;4990636;28;25070;-72
2022/10/04 10:17:42;;;;;;;14.20;7.43;;;15.60;99.90;;;;;;4991977;28;25150;-74
2022/10/04 10:20:44;;;;;;;16.33;6.75;;;15.70;99.90;;;;;;4995890;28;25173;-73
2022/10/04 10:23:29;;;;;;;10.93;5.75;;;15.70;99.90;;;;;;5004762;28;25058;-70
2022/10/04 10:26:22;;;;;;;15.40;6.95;;;15.80;99.90;;;;;;5001369;28;25078;-73
2022/10/04 10:29:01;;;;;;;13.68;6.75;;;15.90;99.90;;;;;;4989774;28;25066;-71
2022/10/04 10:31:53;;;;;;;14.85;7.38;;;16.00;99.90;;;;;;4999553;28;25066;-71
2022/10/04 10:35:10;;;;;;;14.52;7.40;;;15.90;99.90;;;;;;5001017;28;25138;-68
2022/10/04 10:38:12;;;;;;;13.55;7.30;;;16.10;99.90;;;;;;4976427;28;25097;-72
2022/10/04 10:40:58;;;;;;;15.25;6.82;;;16.50;99.90;;;;;;4992326;28;25080;-71
2022/10/04 10:43:55;;;;;;;10.85;6.72;;;16.60;99.90;;;;;;5001429;28;25112;-70
2022/10/04 10:46:50;;;;;;;18.38;7.90;;;16.60;99.90;;;;;;4983739;28;25148;-72
2022/10/04 10:50:01;;;;;;;15.88;8.60;;;16.30;99.90;;;;;;4985077;28;25092;-71
2022/10/04 10:52:44;;;;;;;16.50;6.93;;;16.20;99.90;;;;;;4996877;28;25113;-70
2022/10/04 10:55:37;;;;;;;17.27;6.85;;;16.20;99.90;;;;;;4992114;28;25068;-75
2022/10/04 10:58:21;;;;;;;12.95;6.10;;;16.20;99.90;;;;;;4997442;28;25063;-68
2022/10/04 11:01:09;;;;;;;13.73;5.63;;;16.40;99.90;;;;;;5003440;28;25086;-70
2022/10/04 11:03:42;;;;;;;15.93;6.05;;;16.90;99.90;;;;;;5001535;28;25054;-71
2022/10/04 11:06:21;;;;;;;13.55;6.03;;;17.30;99.90;;;;;;5000380;28;25067;-72
2022/10/04 11:08:49;;;;;;;14.18;6.72;;;17.50;99.90;;;;;;5005244;28;25142;-71
2022/10/04 11:11:54;;;;;;;15.48;6.97;;;17.60;99.90;;;;;;5000475;28;25066;-72
2022/10/04 11:14:34;;;;;;;13.23;7.70;;;17.50;99.90;;;;;;4996166;28;25074;-69
2022/10/04 11:17:47;;;;;;;15.40;7.10;;;17.50;99.90;;;;;;4991941;28;25137;-69
2022/10/04 11:20:31;;;;;;;15.27;7.90;;;17.30;99.90;;;;;;4984295;28;25087;-69
2022/10/04 11:23:17;;;;;;;11.10;6.03;;;17.20;99.90;;;;;;4991818;28;25062;-71
2022/10/04 11:26:11;;;;;;;11.02;5.50;;;17.40;99.90;;;;;;4999001;28;25085;-70
2022/10/04 11:28:57;;;;;;;9.40;4.13;;;17.60;99.90;;;;;;4998528;28;25107;-70
2022/10/04 11:31:50;;;;;;;12.70;4.38;;;17.80;99.90;;;;;;4992761;28;25061;-70
2022/10/04 11:34:36;;;;;;;9.48;4.35;;;18.00;99.90;;;;;;4992200;28;25093;-71
2022/10/04 11:37:18;;;;;;;9.25;4.38;;;18.10;99.90;;;;;;4979501;28;25060;-70
2022/10/04 11:39:53;;;;;;;;;;;18.20;99.90;;;;;;5000907;28;25061;-71
2022/10/04 11:42:25;;;;;;;8.00;5.03;;;18.00;99.90;;;;;;5001760;28;25157;-72
2022/10/04 11:45:18;;;;;;;11.60;4.03;;;18.40;99.90;;;;;;4983188;28;25120;-71
2022/10/04 11:48:06;;;;;;;12.75;4.53;;;18.90;99.90;;;;;;4995816;28;25169;-70
2022/10/04 11:50:48;;;;;;;13.50;4.80;;;19.30;99.90;;;;;;4976834;28;25079;-70
2022/10/04 11:53:32;;;;;;;14.20;5.03;;;19.20;99.90;;;;;;4994232;28;25121;-70
2022/10/04 11:56:25;;;;;;;12.65;5.25;;;19.20;99.90;;;;;;4996526;28;25100;-71
2022/10/04 11:59:17;;;;;;;11.75;6.05;;;19.10;99.90;;;;;;4984870;28;25101;-71
2022/10/04 12:01:59;;;;;;;8.70;4.32;;;18.80;99.90;;;;;;4985126;28;25112;-70
2022/10/04 12:04:34;;;;;;;11.43;5.40;;;19.00;99.90;;;;;;4990065;28;25064;-71
2022/10/04 12:07:36;;;;;;;11.73;4.28;;;19.10;99.90;;;;;;4984128;28;25051;-69
2022/10/04 12:10:27;;;;;;;10.73;4.70;;;19.20;99.90;;;;;;4986540;28;25072;-71
2022/10/04 12:13:14;;;;;;;9.02;5.03;;;19.70;99.90;;;;;;5001282;28;25077;-71
2022/10/04 12:16:28;;;;;;;8.48;4.80;;;19.90;99.90;;;;;;4993863;28;25061;-72
2022/10/04 12:19:04;;;;;;;9.45;4.38;;;20.20;99.90;;;;;;5004077;28;25076;-72
2022/10/04 12:22:07;;;;;;;9.52;4.53;;;20.10;99.90;;;;;;4988857;28;25097;-69
2022/10/04 12:24:46;;;;;;;6.50;4.35;;;20.40;99.90;;;;;;4991753;28;25061;-71
2022/10/04 12:27:37;;;;;;;7.30;3.90;;;20.50;99.90;;;;;;4990873;28;25059;-71
2022/10/04 12:30:09;;;;;;;10.10;4.43;;;20.40;99.90;;;;;;4977751;28;25114;-72
2022/10/04 12:32:41;;;;;;;9.25;4.90;;;20.60;99.90;;;;;;4994310;28;25148;-71
2022/10/04 12:35:43;;;;;;;10.43;4.90;;;20.60;99.90;;;;;;5006018;28;25151;-70
2022/10/04 12:38:43;;;;;;;7.63;4.80;;;20.60;99.90;;;;;;4995919;28;25070;-71
2022/10/04 12:41:22;;;;;;;11.05;4.57;;;20.70;99.90;;;;;;4998571;28;25090;-71
2022/10/04 12:44:06;;;;;;;14.95;5.40;;;20.70;99.90;;;;;;5004091;28;25154;-72
2022/10/04 12:46:50;;;;;;;7.72;4.70;;;20.60;99.90;;;;;;4999047;28;25079;-71
2022/10/04 12:49:42;;;;;;;7.93;4.30;;;20.80;99.90;;;;;;4989493;28;25078;-71
2022/10/04 12:52:18;;;;;;;14.73;5.50;;;20.80;99.90;;;;;;4993050;28;25075;-70
2022/10/04 12:54:51;;;;;;;8.80;5.57;;;20.70;99.90;;;;;;5002923;28;25049;-70
2022/10/04 12:57:29;;;;;;;13.80;5.03;;;20.80;99.90;;;;;;4995387;28;25057;-70
2022/10/04 13:00:17;;;;;;;13.27;5.50;;;21.20;99.90;;;;;;4991126;28;25061;-70
2022/10/04 13:03:02;;;;;;;13.05;5.53;;;21.20;99.90;;;;;;4987465;28;25074;-72
2022/10/04 13:05:46;;;;;;;9.55;4.88;;;20.90;99.90;;;;;;4989654;28;25058;-71
2022/10/04 13:08:37;;;;;;;11.32;5.35;;;20.50;99.90;;;;;;4992964;28;25069;-70
2022/10/04 13:11:27;;;;;;;6.82;4.00;;;20.40;99.90;;;;;;4995295;28;25063;-72
2022/10/04 13:14:04;;;;;;;10.10;4.47;;;20.40;99.90;;;;;;4995449;28;25046;-70
2022/10/04 13:16:56;;;;;;;11.02;4.57;;;20.50;99.90;;;;;;4997414;28;25153;-71
2022/10/04 13:19:37;;;;;;;8.60;4.85;;;20.50;99.90;;;;;;4980304;28;25112;-70
2022/10/04 13:22:06;;;;;;;7.85;4.70;;;20.20;99.90;;;;;;4986094;28;25082;-71
2022/10/04 13:24:58;;;;;;;9.43;4.80;;;20.40;99.90;;;;;;4994511;28;25138;-70
2022/10/04 13:27:23;;;;;;;6.90;4.15;;;20.40;99.90;;;;;;4990146;28;25167;-72
2022/10/04 13:30:03;;;;;;;6.80;4.55;;;20.40;99.90;;;;;;4996088;28;25081;-70
2022/10/04 13:32:40;;;;;;;11.70;5.05;;;20.40;99.90;;;;;;4984106;28;25136;-70
2022/10/04 13:35:25;;;;;;;9.27;4.65;;;20.00;99.90;;;;;;4997075;28;25117;-70
2022/10/04 13:38:17;;;;;;;7.70;4.78;;;20.10;99.90;;;;;;4993858;28;25125;-72
2022/10/04 13:41:22;;;;;;;10.70;5.03;;;20.10;99.90;;;;;;4990497;28;25162;-71
2022/10/04 13:44:11;;;;;;;8.40;4.57;;;19.90;99.90;;;;;;4990574;28;25052;-71
2022/10/04 13:47:05;;;;;;;8.40;4.32;;;19.90;99.90;;;;;;4985222;28;25136;-74
2022/10/04 13:49:55;;;;;;;7.50;4.45;;;19.50;99.90;;;;;;4980607;28;25121;-71
2022/10/04 13:58:32;;;;;;;9.27;3.92;;;18.80;99.90;;;;;;4994233;28;25075;-72